Time;durP1;ratioP1;P1;durP2;ratioP2;P2;SDS_P1;SDS_P2;PMS_P1;PMS_P2;Temp;Humidity;BMP_temperature;BMP_pressure;BME280_temperature;BME280_humidity;BME280_pressure;Samples;Min_cycle;Max_cycle;Signal;HPM_P1;HPM_P2
2022/11/05 00:09:32;;;;;;;81.18;39.92;;;;;;;17.23;100.00;100435.88;5088945;28;20051;-78
2022/11/05 00:17:43;;;;;;;82.30;41.20;;;;;;;17.19;100.00;100439.09;5089214;28;20032;-77
2022/11/05 00:20:12;;;;;;;70.80;41.10;;;;;;;17.18;100.00;100432.84;5088795;28;20032;-76
2022/11/05 00:25:22;;;;;;;67.45;41.47;;;;;;;17.19;100.00;100439.09;5088984;28;20039;-76
2022/11/05 00:27:50;;;;;;;63.92;39.92;;;;;;;17.22;100.00;100431.44;5089099;28;20028;-76
2022/11/05 00:30:21;;;;;;;77.25;41.67;;;;;;;17.29;100.00;100421.59;5088604;28;20031;-77
2022/11/05 00:32:48;;;;;;;80.43;43.47;;;;;;;17.27;100.00;100426.38;5089251;28;20042;-77
2022/11/05 00:35:15;;;;;;;69.82;40.88;;;;;;;17.22;100.00;100417.84;5088685;28;20392;-75
2022/11/05 00:37:41;;;;;;;78.32;42.20;;;;;;;17.02;100.00;100400.22;5070993;28;20446;-76
2022/11/05 00:40:08;;;;;;;92.43;42.80;;;;;;;17.14;100.00;100414.31;5096368;28;20024;-76
2022/11/05 00:45:18;;;;;;;83.88;45.88;;;;;;;17.19;100.00;100423.63;5101854;28;20038;-76
2022/11/05 00:50:27;;;;;;;82.88;44.60;;;;;;;17.17;100.00;100422.97;5092711;28;20133;-77
2022/11/05 00:52:55;;;;;;;83.00;46.58;;;;;;;17.15;100.00;100432.31;5092572;28;20027;-76
2022/11/05 00:55:32;;;;;;;75.32;43.97;;;;;;;17.15;100.00;100438.59;5074110;28;20429;-76
2022/11/05 00:57:58;;;;;;;87.28;47.53;;;;;;;17.13;100.00;100418.88;5092191;28;20032;-78
2022/11/05 01:00:25;;;;;;;79.97;44.95;;;;;;;17.15;100.00;100435.91;5092448;28;20479;-76
2022/11/05 01:02:51;;;;;;;89.97;43.80;;;;;;;17.08;100.00;100443.03;5092421;28;20150;-78
2022/11/05 01:05:16;;;;;;;83.65;46.42;;;;;;;17.08;100.00;100443.03;5091990;28;20103;-77
2022/11/05 01:07:42;;;;;;;83.57;45.97;;;;;;;17.10;100.00;100435.53;5091777;28;20081;-78
2022/11/05 01:10:08;;;;;;;77.65;42.97;;;;;;;17.11;100.00;100436.41;5091951;28;20028;-77
2022/11/05 01:12:33;;;;;;;80.80;46.05;;;;;;;17.17;100.00;100427.56;5091655;28;20093;-77
2022/11/05 01:14:59;;;;;;;106.15;47.38;;;;;;;17.13;100.00;100429.75;5092395;28;20447;-76
2022/11/05 01:17:24;;;;;;;80.85;42.08;;;;;;;17.19;100.00;100436.38;5092009;28;20111;-76
2022/11/05 01:19:50;;;;;;;83.13;42.03;;;;;;;17.13;100.00;100416.16;5091938;28;20020;-76
2022/11/05 01:22:15;;;;;;;84.82;43.65;;;;;;;17.12;100.00;100422.66;5092047;28;20121;-76
2022/11/05 01:24:41;;;;;;;89.22;47.10;;;;;;;17.21;100.00;100415.31;5091509;28;20089;-77
2022/11/05 01:27:06;;;;;;;82.30;44.72;;;;;;;16.97;100.00;100372.72;5091609;28;20076;-77
2022/11/05 01:29:32;;;;;;;73.82;45.63;;;;;;;17.04;100.00;100403.63;5091658;28;20077;-77
2022/11/05 01:31:57;;;;;;;78.63;44.97;;;;;;;17.27;100.00;100418.22;5091759;28;20036;-76
2022/11/05 01:34:22;;;;;;;78.95;43.67;;;;;;;17.24;100.00;100410.41;5091199;28;20051;-76
2022/11/05 01:36:48;;;;;;;76.43;46.10;;;;;;;17.21;100.00;100407.16;5091857;28;20076;-77
2022/11/05 01:39:13;;;;;;;70.28;44.50;;;;;;;17.23;100.00;100408.69;5091622;28;20085;-77
2022/11/05 01:41:39;;;;;;;90.15;47.08;;;;;;;17.25;100.00;100400.34;5091464;28;20104;-77
2022/11/05 01:44:04;;;;;;;83.47;44.33;;;;;;;17.29;100.00;100399.84;5091683;28;20032;-77
2022/11/05 01:46:37;;;;;;;71.03;42.78;;;;;;;17.26;100.00;100393.91;5091265;28;20047;-76
2022/11/05 01:49:16;;;;;;;86.60;45.30;;;;;;;17.23;100.00;100397.81;5091445;28;20040;-77
2022/11/05 01:51:44;;;;;;;81.22;43.85;;;;;;;17.11;100.00;100380.19;5097906;28;20020;-76
2022/11/05 01:54:14;;;;;;;88.53;46.22;;;;;;;17.12;100.00;100389.19;5101956;28;20397;-77
2022/11/05 01:56:48;;;;;;;93.88;45.88;;;;;;;17.07;100.00;100380.69;5102779;28;20096;-76
2022/11/05 01:59:22;;;;;;;88.05;48.65;;;;;;;17.05;100.00;100394.44;5091053;28;20020;-76
2022/11/05 02:01:49;;;;;;;88.53;47.40;;;;;;;17.07;100.00;100383.41;5090965;28;20490;-75
2022/11/05 02:04:24;;;;;;;92.95;48.85;;;;;;;17.03;100.00;100385.59;5091173;28;20115;-76
2022/11/05 02:06:49;;;;;;;99.45;48.53;;;;;;;17.04;100.00;100378.31;5090920;28;20031;-76
2022/11/05 02:09:27;;;;;;;94.18;48.63;;;;;;;17.06;100.00;100381.72;5091071;28;20024;-76
2022/11/05 02:11:52;;;;;;;92.65;48.03;;;;;;;17.10;100.00;100380.34;5091115;28;20088;-76
2022/11/05 02:14:18;;;;;;;94.78;48.90;;;;;;;17.06;100.00;100379.84;5090752;28;20468;-76
2022/11/05 02:17:04;;;;;;;89.03;48.65;;;;;;;17.04;100.00;100381.03;5090594;28;20067;-76
2022/11/05 02:19:32;;;;;;;93.68;51.00;;;;;;;17.07;100.00;100386.13;5090883;28;20036;-77
2022/11/05 02:22:03;;;;;;;95.10;52.78;;;;;;;17.06;100.00;100379.84;5090676;28;20039;-76
2022/11/05 02:24:46;;;;;;;94.55;51.72;;;;;;;17.10;100.00;100380.34;5090458;28;20474;-77
2022/11/05 02:27:40;;;;;;;104.90;51.10;;;;;;;17.07;100.00;100386.13;5090649;28;20140;-76
2022/11/05 02:30:25;;;;;;;102.70;52.13;;;;;;;17.00;100.00;100366.09;5090344;28;20051;-76
2022/11/05 02:33:00;;;;;;;97.75;52.88;;;;;;;17.19;100.00;100391.03;5090707;28;20028;-78
2022/11/05 02:35:31;;;;;;;111.10;52.55;;;;;;;17.14;100.00;100387.97;5090320;28;20513;-76
2022/11/05 02:38:07;;;;;;;105.15;55.33;;;;;;;17.03;100.00;100368.47;5090407;28;20035;-76
2022/11/05 02:40:49;;;;;;;113.95;55.13;;;;;;;17.16;100.00;100385.06;5090409;28;20020;-76
2022/11/05 02:43:25;;;;;;;94.50;53.53;;;;;;;17.10;100.00;100386.63;5090234;28;20035;-78
2022/11/05 02:46:19;;;;;;;98.78;54.85;;;;;;;17.03;100.00;100373.91;5090287;28;20028;-77
2022/11/05 02:49:24;;;;;;;101.00;55.00;;;;;;;17.10;100.00;100386.63;5090541;28;20097;-77
2022/11/05 02:52:00;;;;;;;90.97;54.60;;;;;;;17.20;100.00;100387.28;5090202;28;20035;-77
2022/11/05 02:54:57;;;;;;;95.75;57.03;;;;;;;17.14;100.00;100384.41;5090229;28;20071;-76
2022/11/05 02:57:22;;;;;;;92.55;53.15;;;;;;;17.13;100.00;100380.84;4955777;28;20042;-76
2022/11/05 02:59:48;;;;;;;104.78;55.33;;;;;;;17.16;100.00;100379.66;4988190;28;20602;-76
2022/11/05 03:02:13;;;;;;;100.55;57.13;;;;;;;17.15;100.00;100377.97;4953452;28;20567;-76
2022/11/05 03:04:39;;;;;;;96.80;55.20;;;;;;;17.04;100.00;100356.56;4971760;28;20156;-76
2022/11/05 03:07:23;;;;;;;111.53;59.50;;;;;;;17.07;100.00;100381.53;4961982;28;20043;-76
2022/11/05 03:10:15;;;;;;;129.20;61.35;;;;;;;17.09;100.00;100379.50;4952555;28;20050;-76
2022/11/05 03:13:03;;;;;;;105.95;59.90;;;;;;;17.08;100.00;100383.25;4949261;28;20051;-77
2022/11/05 03:15:52;;;;;;;110.00;61.80;;;;;;;17.17;100.00;100384.91;4949084;28;20481;-75
2022/11/05 03:18:49;;;;;;;101.07;55.67;;;;;;;17.13;100.00;100375.41;4949259;28;20491;-75
2022/11/05 03:21:22;;;;;;;108.28;59.78;;;;;;;17.16;100.00;100368.78;4948962;29;20055;-77
2022/11/05 03:24:22;;;;;;;101.15;58.70;;;;;;;17.21;100.00;100369.13;4948900;29;20122;-75
2022/11/05 03:27:01;;;;;;;116.40;60.30;;;;;;;17.27;100.00;100372.00;4892009;29;20056;-76
2022/11/05 03:29:34;;;;;;;100.68;58.90;;;;;;;17.27;100.00;100363.84;4892213;29;20112;-76
2022/11/05 03:32:02;;;;;;;111.00;60.78;;;;;;;17.28;100.00;100357.34;4891724;29;20056;-76
2022/11/05 03:34:36;;;;;;;123.57;61.22;;;;;;;17.39;100.00;100365.16;4924979;29;20376;-78
2022/11/05 03:37:04;;;;;;;101.43;56.47;;;;;;;17.43;100.00;100368.34;4948782;29;20139;-77
2022/11/05 03:39:34;;;;;;;124.10;58.15;;;;;;;17.46;100.00;100376.16;4965807;28;20081;-77
2022/11/05 03:42:03;;;;;;;109.18;56.45;;;;;;;17.48;100.00;100370.56;4988355;28;20030;-76
2022/11/05 03:44:35;;;;;;;100.35;53.90;;;;;;;17.51;100.00;100367.50;4987469;28;20417;-77
2022/11/05 03:47:06;;;;;;;103.20;58.45;;;;;;;17.49;99.66;100364.09;4987670;28;20390;-75
2022/11/05 03:49:42;;;;;;;99.80;57.10;;;;;;;17.52;99.19;100358.31;4987667;28;20413;-76
2022/11/05 03:52:20;;;;;;;110.78;55.65;;;;;;;17.51;98.58;100356.63;4987595;28;20034;-77
2022/11/05 03:54:46;;;;;;;90.90;55.05;;;;;;;17.50;97.98;100350.31;4987397;28;20034;-77
2022/11/05 03:57:35;;;;;;;100.53;56.65;;;;;;;17.52;97.66;100359.13;4987040;28;20166;-77
2022/11/05 04:00:05;;;;;;;101.05;55.63;;;;;;;17.49;97.29;100350.50;4987388;28;20030;-77
2022/11/05 04:02:30;;;;;;;111.18;58.97;;;;;;;17.47;96.98;100344.38;4965607;28;20131;-76
2022/11/05 04:04:55;;;;;;;111.40;58.17;;;;;;;17.46;96.55;100351.69;5088998;28;20034;-78
2022/11/05 04:17:05;;;;;;;122.05;57.45;;;;;;;17.40;95.91;100353.25;5102144;28;20058;-76
2022/11/05 04:18:18;;;;;;;131.40;58.92;;;;;;;17.36;95.92;100356.50;5105776;28;20028;-80
2022/11/05 04:26:12;;;;;;;100.15;56.22;;;;;;;17.22;95.64;100339.03;5092914;28;20046;-77
2022/11/05 04:31:21;;;;;;;122.30;57.80;;;;;;;17.26;95.55;100359.41;5092753;28;20062;-77
2022/11/05 04:33:47;;;;;;;104.05;55.55;;;;;;;17.26;95.37;100359.41;5092233;28;20126;-77
2022/11/05 04:36:12;;;;;;;116.10;56.38;;;;;;;17.25;95.25;100362.28;5092566;28;20020;-77
2022/11/05 04:38:37;;;;;;;115.88;57.92;;;;;;;17.24;95.12;100369.63;5092598;28;20142;-76
2022/11/05 04:41:16;;;;;;;106.28;58.17;;;;;;;17.18;94.83;100364.88;5092400;28;20031;-77
2022/11/05 04:43:42;;;;;;;121.88;58.92;;;;;;;17.18;94.95;100362.16;5041836;28;20058;-76
2022/11/05 04:46:08;;;;;;;102.93;58.35;;;;;;;17.19;95.03;100354.84;5092593;28;20027;-75
2022/11/05 04:48:34;;;;;;;101.90;59.13;;;;;;;17.19;95.20;100361.13;5092536;28;20024;-76
2022/11/05 04:51:00;;;;;;;100.40;56.38;;;;;;;17.16;95.07;100356.03;5092372;28;20039;-76
2022/11/05 04:53:25;;;;;;;114.55;58.53;;;;;;;17.17;94.99;100355.03;5092074;28;20032;-75
2022/11/05 04:55:50;;;;;;;105.35;57.17;;;;;;;17.17;95.06;100348.75;5092479;28;20056;-77
2022/11/05 04:58:16;;;;;;;106.28;58.70;;;;;;;17.17;94.97;100365.03;5092320;28;20399;-77
2022/11/05 05:00:41;;;;;;;121.07;59.13;;;;;;;17.13;94.89;100356.38;5092039;28;20402;-75
2022/11/05 05:03:07;;;;;;;102.80;57.80;;;;;;;17.16;94.98;100353.31;5092132;28;20028;-76
2022/11/05 05:05:32;;;;;;;111.00;58.90;;;;;;;17.17;94.83;100356.88;5091966;28;20384;-76
2022/11/05 05:08:02;;;;;;;105.60;60.45;;;;;;;17.15;95.00;100362.50;5091920;28;20031;-76
2022/11/05 05:10:27;;;;;;;112.32;59.53;;;;;;;17.16;95.02;100361.47;5092216;28;20020;-77
2022/11/05 05:12:53;;;;;;;107.95;57.20;;;;;;;17.18;94.88;100362.16;5092000;28;20031;-76
2022/11/05 05:15:18;;;;;;;103.57;58.72;;;;;;;17.16;94.85;100364.19;5091836;28;20379;-77
2022/11/05 05:17:49;;;;;;;109.63;61.20;;;;;;;17.16;94.83;100369.63;5092088;28;20032;-75
2022/11/05 05:22:59;;;;;;;107.30;57.53;;;;;;;17.19;94.10;100369.28;5091949;28;20046;-76
2022/11/05 05:25:24;;;;;;;106.13;55.15;;;;;;;17.18;94.14;100373.03;5093385;28;20417;-76
2022/11/05 05:27:49;;;;;;;122.65;58.35;;;;;;;17.23;93.96;100380.66;5101078;28;20045;-76
2022/11/05 05:30:15;;;;;;;108.13;57.88;;;;;;;17.24;93.66;100379.66;5097236;28;20067;-76
2022/11/05 05:32:40;;;;;;;117.05;59.72;;;;;;;17.10;93.29;100354.00;5095321;28;20032;-76
2022/11/05 05:35:06;;;;;;;110.10;61.22;;;;;;;17.26;92.39;100375.72;5090813;28;20458;-76
2022/11/05 05:37:32;;;;;;;125.10;67.78;;;;;;;17.13;91.81;100350.94;5091799;28;20466;-76
2022/11/05 05:39:57;;;;;;;110.20;61.55;;;;;;;17.30;91.36;100387.09;5091286;28;20040;-75
2022/11/05 05:42:22;;;;;;;108.40;58.95;;;;;;;17.33;90.59;100382.19;5091968;28;20024;-75
2022/11/05 05:44:48;;;;;;;124.47;61.08;;;;;;;17.37;89.60;100396.25;5092031;28;20085;-78
2022/11/05 05:47:13;;;;;;;110.45;57.90;;;;;;;17.34;88.76;100393.88;5092076;28;20769;-79
2022/11/05 05:49:39;;;;;;;121.05;62.53;;;;;;;17.41;88.19;100406.59;5088337;28;20028;-78
2022/11/05 05:52:05;;;;;;;140.32;61.80;;;;;;;17.32;87.54;100388.63;5061789;28;20044;-79
2022/11/05 05:54:30;;;;;;;103.80;58.08;;;;;;;17.47;87.33;100412.34;5045329;28;20130;-77
2022/11/05 05:56:56;;;;;;;128.05;59.35;;;;;;;17.50;86.97;100409.28;5091254;28;20589;-78
2022/11/05 05:59:22;;;;;;;133.63;59.05;;;;;;;17.52;86.74;100405.38;5054380;28;20044;-76
2022/11/05 06:01:48;;;;;;;128.18;57.92;;;;;;;17.55;86.38;100406.94;5091080;28;20016;-77
2022/11/05 06:04:14;;;;;;;117.53;56.85;;;;;;;17.58;86.00;100412.03;5090791;28;20032;-76
2022/11/05 06:06:39;;;;;;;118.43;57.60;;;;;;;17.66;85.58;100425.59;5091282;28;20502;-75
2022/11/05 06:09:05;;;;;;;231.85;64.57;;;;;;;17.71;84.90;100423.19;5109510;28;20075;-76
2022/11/05 06:11:30;;;;;;;129.38;59.33;;;;;;;17.75;84.50;100425.41;5047486;28;20052;-76
2022/11/05 06:13:56;;;;;;;255.18;67.28;;;;;;;17.79;84.15;100431.34;5109316;28;20028;-75
2022/11/05 06:16:22;;;;;;;166.48;61.50;;;;;;;17.82;83.95;100431.00;5110893;28;20020;-77
2022/11/05 06:18:47;;;;;;;158.80;59.90;;;;;;;17.88;83.44;100430.28;5110907;28;20023;-77
2022/11/05 06:21:15;;;;;;;184.40;59.45;;;;;;;17.91;82.99;100430.78;5093965;28;20063;-76
2022/11/05 06:23:43;;;;;;;152.60;58.42;;;;;;;18.00;82.84;100434.31;5103531;28;20031;-77
2022/11/05 06:26:11;;;;;;;144.15;57.78;;;;;;;18.01;82.40;100424.28;5110581;28;20023;-81
2022/11/05 06:28:37;;;;;;;225.32;62.28;;;;;;;18.07;82.20;100429.00;5092874;28;20059;-76
2022/11/05 06:31:03;;;;;;;134.95;58.53;;;;;;;18.14;82.24;100435.41;5092219;28;20108;-76
2022/11/05 06:33:28;;;;;;;132.10;53.45;;;;;;;18.18;82.14;100432.16;5093127;28;20075;-74
2022/11/05 06:35:57;;;;;;;201.68;55.03;;;;;;;18.28;81.41;100443.69;5089903;28;20043;-75
2022/11/05 06:38:22;;;;;;;139.68;56.72;;;;;;;18.34;81.01;100444.84;5099389;28;20063;-75
2022/11/05 06:40:48;;;;;;;197.15;88.93;;;;;;;18.39;80.60;100440.56;5120499;28;20031;-76
2022/11/05 06:43:13;;;;;;;143.10;67.25;;;;;;;18.44;80.69;100443.56;5097996;28;20465;-76
2022/11/05 06:45:39;;;;;;;123.18;53.30;;;;;;;18.52;80.37;100439.16;5089726;28;20031;-75
2022/11/05 06:48:05;;;;;;;120.80;55.50;;;;;;;18.58;79.97;100439.28;5089949;28;20038;-76
2022/11/05 06:50:30;;;;;;;257.27;59.33;;;;;;;18.62;79.96;100434.31;5089934;28;20032;-76
2022/11/05 06:53:00;;;;;;;220.68;59.40;;;;;;;18.66;79.65;100432.91;5089438;28;20035;-77
2022/11/05 06:55:28;;;;;;;122.55;50.08;;;;;;;18.58;79.01;100411.19;5089164;28;20054;-76
2022/11/05 06:57:54;;;;;;;178.30;53.85;;;;;;;18.75;78.99;100431.81;5100673;28;20099;-75
2022/11/05 07:00:20;;;;;;;166.32;51.08;;;;;;;18.77;78.71;100433.34;5104471;28;20126;-75
2022/11/05 07:02:46;;;;;;;86.70;48.00;;;;;;;18.80;78.54;100422.09;5089428;28;20028;-75
2022/11/05 07:05:12;;;;;;;106.03;47.30;;;;;;;18.85;78.09;100424.25;5089607;28;20601;-76
2022/11/05 07:07:42;;;;;;;78.63;44.53;;;;;;;18.82;77.24;100440.97;5089829;28;20037;-76
2022/11/05 07:10:12;;;;;;;109.22;47.65;;;;;;;18.82;76.71;100422.75;5089106;28;20026;-76
2022/11/05 07:12:37;;;;;;;138.35;49.00;;;;;;;18.79;76.18;100430.44;5093887;28;20096;-76
2022/11/05 07:15:03;;;;;;;91.95;48.85;;;;;;;18.64;76.23;100416.75;5109716;28;20466;-77
2022/11/05 07:17:29;;;;;;;183.45;54.67;;;;;;;18.75;76.02;100429.94;5105072;28;20020;-76
2022/11/05 07:19:54;;;;;;;110.57;47.60;;;;;;;18.77;76.02;100436.06;5088941;28;20035;-75
2022/11/05 07:22:20;;;;;;;113.78;46.38;;;;;;;18.69;75.97;100408.88;5089084;28;20028;-74
2022/11/05 07:24:46;;;;;;;78.40;45.53;;;;;;;18.84;74.73;100426.13;5089432;28;20039;-76
2022/11/05 07:27:15;;;;;;;97.28;45.08;;;;;;;18.85;73.63;100426.97;5071977;28;20463;-76
2022/11/05 07:29:40;;;;;;;121.07;48.20;;;;;;;18.84;72.74;100422.53;5094267;28;20089;-76
2022/11/05 07:32:05;;;;;;;108.40;42.65;;;;;;;18.72;70.09;100427.59;5109434;28;20031;-76
2022/11/05 07:34:31;;;;;;;143.55;43.90;;;;;;;18.60;70.21;100420.88;5109454;28;20058;-75
2022/11/05 07:36:57;;;;;;;111.45;44.15;;;;;;;18.67;70.73;100418.25;5066391;28;20118;-76
2022/11/05 07:39:22;;;;;;;174.02;47.25;;;;;;;18.70;70.74;100398.81;5051981;28;20068;-77
2022/11/05 07:41:47;;;;;;;132.70;48.47;;;;;;;18.93;70.43;100413.25;5062764;28;20136;-76
2022/11/05 07:44:13;;;;;;;103.65;44.42;;;;;;;18.96;70.07;100410.16;5066850;28;20036;-74
2022/11/05 07:46:40;;;;;;;153.90;43.90;;;;;;;18.95;67.80;100416.69;5069088;28;20032;-75
2022/11/05 07:49:06;;;;;;;100.13;44.38;;;;;;;18.86;68.66;100415.06;5077936;28;20048;-75
2022/11/05 07:51:31;;;;;;;86.85;41.58;;;;;;;18.92;68.46;100408.88;5078555;28;20075;-76
2022/11/05 07:53:57;;;;;;;103.70;41.35;;;;;;;18.88;68.45;100391.19;5072972;28;20032;-75
2022/11/05 07:56:22;;;;;;;84.25;41.95;;;;;;;19.07;68.79;100423.38;5071282;28;20040;-74
2022/11/05 07:58:48;;;;;;;109.28;44.95;;;;;;;19.26;68.20;100422.84;5068643;28;20079;-74
2022/11/05 08:01:13;;;;;;;84.93;40.70;;;;;;;19.36;67.54;100417.97;5030234;28;20443;-74
2022/11/05 08:03:39;;;;;;;79.22;39.45;;;;;;;19.38;65.76;100421.38;5030571;28;20045;-74
2022/11/05 08:06:04;;;;;;;90.95;40.88;;;;;;;19.20;64.89;100420.03;5057467;28;20028;-74
2022/11/05 08:08:30;;;;;;;86.32;37.90;;;;;;;19.19;65.09;100412.88;5100112;28;20054;-77
2022/11/05 08:11:05;;;;;;;102.65;42.58;;;;;;;19.13;64.81;100417.19;5109607;28;20032;-77
2022/11/05 08:13:31;;;;;;;100.00;40.63;;;;;;;19.24;65.26;100419.44;5092985;28;20028;-75
2022/11/05 08:15:56;;;;;;;116.70;43.33;;;;;;;19.25;64.20;100410.25;5093329;28;20439;-77
2022/11/05 08:18:22;;;;;;;284.90;53.25;;;;;;;19.33;64.31;100412.88;5099444;28;20123;-77
2022/11/05 08:20:48;;;;;;;269.92;51.38;;;;;;;19.45;63.68;100411.41;5092555;28;20028;-76
2022/11/05 08:23:14;;;;;;;108.82;43.22;;;;;;;19.54;62.95;100413.03;5088592;28;20035;-76
2022/11/05 08:25:40;;;;;;;106.90;38.88;;;;;;;19.41;62.72;100387.44;5090248;28;20410;-75
2022/11/05 08:28:09;;;;;;;86.05;41.58;;;;;;;19.53;62.20;100384.06;5101004;28;20039;-76
2022/11/05 08:30:35;;;;;;;101.72;41.38;;;;;;;19.64;61.85;100409.16;5092534;28;20115;-74
2022/11/05 08:33:07;;;;;;;107.30;43.58;;;;;;;19.73;62.11;100408.88;5092417;28;20112;-77
2022/11/05 08:35:34;;;;;;;90.37;38.87;;;;;;;19.76;61.22;100404.91;5092635;28;20105;-78
2022/11/05 08:38:05;;;;;;;99.32;39.28;;;;;;;19.66;61.56;100407.13;5107354;28;20125;-76
2022/11/05 08:40:33;;;;;;;222.98;48.58;;;;;;;19.70;61.92;100411.13;5112579;28;20092;-76
2022/11/05 08:43:01;;;;;;;111.00;41.42;;;;;;;19.87;61.63;100412.66;5112916;28;20032;-78
2022/11/05 08:45:27;;;;;;;73.20;37.50;;;;;;;19.90;60.96;100417.72;5112630;28;20422;-76
2022/11/05 08:47:59;;;;;;;154.40;43.72;;;;;;;19.80;61.38;100414.44;5112765;28;20076;-76
2022/11/05 08:50:25;;;;;;;95.22;45.25;;;;;;;19.78;61.83;100408.31;5112943;28;20035;-77
2022/11/05 08:52:51;;;;;;;188.25;48.47;;;;;;;19.74;62.20;100409.72;5112702;28;20038;-76
2022/11/05 08:55:17;;;;;;;74.55;42.10;;;;;;;19.76;62.24;100394.00;5112576;28;20141;-76
2022/11/05 08:57:45;;;;;;;76.82;39.42;;;;;;;19.90;61.86;100406.81;5119585;28;20023;-77
2022/11/05 09:00:11;;;;;;;85.05;40.08;;;;;;;19.91;61.77;100408.47;5124864;28;20035;-77
2022/11/05 09:02:37;;;;;;;226.48;44.90;;;;;;;19.97;62.21;100405.84;5122462;28;20097;-76
2022/11/05 09:05:02;;;;;;;304.75;61.45;;;;;;;19.86;61.61;100402.75;5112163;28;20056;-79
2022/11/05 09:07:28;;;;;;;82.90;39.35;;;;;;;19.90;61.28;100398.63;5112044;28;20091;-76
2022/11/05 09:09:53;;;;;;;119.10;43.72;;;;;;;20.01;62.08;100414.50;5112454;28;20030;-77
2022/11/05 09:12:19;;;;;;;139.50;41.75;;;;;;;20.04;62.89;100416.84;5112193;28;20478;-76
2022/11/05 09:14:44;;;;;;;122.05;42.13;;;;;;;20.09;63.50;100411.66;5111857;28;20063;-77
2022/11/05 09:17:18;;;;;;;147.52;43.45;;;;;;;20.19;63.52;100408.63;5111858;28;20024;-77
2022/11/05 09:19:44;;;;;;;262.25;54.80;;;;;;;20.34;63.53;100409.44;5112005;28;20376;-76
2022/11/05 09:22:11;;;;;;;94.07;44.25;;;;;;;20.33;63.08;100378.59;5111637;28;20088;-77
2022/11/05 09:24:41;;;;;;;104.68;42.75;;;;;;;20.31;63.18;100375.19;5111861;28;20023;-76
2022/11/05 09:27:14;;;;;;;173.80;45.72;;;;;;;20.42;62.67;100382.88;5111948;28;20031;-76
2022/11/05 09:29:40;;;;;;;96.22;40.88;;;;;;;20.58;62.09;100404.47;5112207;28;20474;-77
2022/11/05 09:32:07;;;;;;;95.32;39.78;;;;;;;20.60;62.19;100402.41;5059352;28;20050;-77
2022/11/05 09:34:33;;;;;;;328.60;58.55;;;;;;;20.63;62.54;100402.00;5111104;28;20080;-77
2022/11/05 09:36:58;;;;;;;117.32;41.22;;;;;;;20.67;62.44;100397.00;5111883;28;20023;-75
2022/11/05 09:39:24;;;;;;;100.90;38.75;;;;;;;20.62;62.52;100394.84;5111275;28;20032;-76
2022/11/05 09:41:54;;;;;;;91.35;41.30;;;;;;;20.55;62.87;100404.84;5111817;28;20114;-75
2022/11/05 09:44:25;;;;;;;144.65;42.67;;;;;;;20.54;63.19;100399.59;5111244;28;20038;-74
2022/11/05 09:47:00;;;;;;;109.85;39.85;;;;;;;20.44;62.22;100375.31;5111150;28;20081;-76
2022/11/05 09:49:34;;;;;;;328.02;53.17;;;;;;;20.60;62.64;100401.56;5111186;28;20114;-74
2022/11/05 09:52:00;;;;;;;91.70;39.30;;;;;;;20.66;62.43;100389.00;5112248;28;20045;-74
2022/11/05 09:54:30;;;;;;;157.15;43.10;;;;;;;20.61;62.85;100387.69;5111190;28;20040;-77
2022/11/05 09:56:56;;;;;;;334.10;56.03;;;;;;;20.70;62.73;100390.31;5111171;28;20023;-75
2022/11/05 09:59:47;;;;;;;177.32;40.67;;;;;;;20.84;62.05;100386.63;5110961;28;20072;-74
2022/11/05 10:02:27;;;;;;;412.63;60.42;;;;;;;20.82;61.01;100377.78;5110820;28;20028;-75
2022/11/05 10:04:56;;;;;;;85.60;36.42;;;;;;;20.85;60.86;100374.66;5110823;28;20119;-75
2022/11/05 10:07:25;;;;;;;133.88;39.13;;;;;;;20.93;59.39;100386.31;5112801;28;20042;-73
2022/11/05 10:09:56;;;;;;;71.20;35.90;;;;;;;20.80;58.51;100379.84;5117646;28;20502;-73
2022/11/05 10:12:24;;;;;;;95.45;35.35;;;;;;;20.83;58.30;100390.41;5117327;28;20046;-75
2022/11/05 10:15:15;;;;;;;117.60;35.20;;;;;;;20.82;58.72;100388.72;5112059;28;20042;-74
2022/11/05 10:17:45;;;;;;;199.38;41.30;;;;;;;20.90;59.30;100385.84;5110838;28;20019;-74
2022/11/05 10:20:33;;;;;;;61.90;32.65;;;;;;;20.97;58.89;100382.13;5111363;28;20026;-75
2022/11/05 10:23:08;;;;;;;146.95;37.15;;;;;;;20.95;58.87;100386.94;5110463;28;20023;-75
2022/11/05 10:25:38;;;;;;;427.63;57.60;;;;;;;20.98;58.39;100391.16;5110697;28;20030;-75
2022/11/05 10:28:06;;;;;;;66.47;34.22;;;;;;;21.04;57.13;100388.47;5110369;28;20109;-75
2022/11/05 10:30:32;;;;;;;113.25;35.42;;;;;;;21.11;56.65;100383.09;5074145;28;20785;-74
2022/11/05 10:33:01;;;;;;;105.97;30.92;;;;;;;20.98;57.09;100361.09;5110308;28;20045;-74
2022/11/05 10:35:32;;;;;;;95.72;33.75;;;;;;;20.94;59.08;100384.41;5110640;28;20056;-75
2022/11/05 10:37:58;;;;;;;473.73;62.78;;;;;;;20.84;58.71;100365.63;5110358;28;20084;-76
2022/11/05 10:40:37;;;;;;;100.90;31.60;;;;;;;21.14;58.93;100379.97;5110324;28;20027;-75
2022/11/05 10:43:15;;;;;;;75.65;33.75;;;;;;;21.02;59.08;100373.31;5110069;28;20027;-74
2022/11/05 10:46:19;;;;;;;60.40;30.38;;;;;;;21.24;58.15;100377.75;5110337;28;20062;-75
2022/11/05 10:49:07;;;;;;;83.78;31.17;;;;;;;21.13;58.18;100351.78;5110053;28;20049;-74
2022/11/05 10:51:32;;;;;;;109.30;33.42;;;;;;;20.92;58.14;100315.41;5007034;28;20062;-76
2022/11/05 10:54:10;;;;;;;126.00;36.42;;;;;;;21.34;58.25;100370.03;5008631;28;20041;-75
2022/11/05 10:56:38;;;;;;;80.45;30.85;;;;;;;21.33;57.36;100376.53;5007594;28;20045;-76
2022/11/05 10:59:17;;;;;;;75.78;33.55;;;;;;;21.28;57.06;100368.09;5007790;28;20033;-74
2022/11/05 11:01:43;;;;;;;151.88;38.10;;;;;;;21.29;57.95;100369.75;5007684;28;20029;-76
2022/11/05 11:04:11;;;;;;;66.75;30.95;;;;;;;21.29;56.59;100360.72;5007823;28;20037;-75
2022/11/05 11:06:37;;;;;;;66.55;29.77;;;;;;;21.23;55.90;100373.31;5008093;28;20077;-75
2022/11/05 11:09:21;;;;;;;63.33;30.23;;;;;;;21.22;55.59;100366.16;5007109;28;20520;-74
2022/11/05 11:12:13;;;;;;;113.45;32.65;;;;;;;21.30;56.87;100360.53;5006962;28;20124;-76
2022/11/05 11:14:39;;;;;;;83.35;28.58;;;;;;;21.14;55.91;100361.69;4929079;29;20553;-75
2022/11/05 11:17:30;;;;;;;92.15;30.42;;;;;;;21.23;56.93;100364.25;4930851;29;20054;-75
2022/11/05 11:20:19;;;;;;;272.33;43.08;;;;;;;21.35;56.46;100363.50;4933427;29;20443;-76
2022/11/05 11:23:04;;;;;;;51.28;28.67;;;;;;;21.43;56.29;100359.75;4935519;29;20164;-75
2022/11/05 11:25:59;;;;;;;218.43;37.20;;;;;;;21.46;56.33;100343.78;4935389;29;20040;-74
2022/11/05 11:28:28;;;;;;;155.38;32.33;;;;;;;21.46;55.25;100360.22;4974107;28;20055;-74
2022/11/05 11:31:03;;;;;;;112.57;30.27;;;;;;;21.41;55.76;100350.88;5027137;28;20106;-74
2022/11/05 11:33:30;;;;;;;79.35;30.15;;;;;;;21.28;55.47;100329.78;5026108;28;20196;-74
2022/11/05 11:35:58;;;;;;;115.82;30.02;;;;;;;21.31;56.06;100345.81;5026530;28;20046;-75
2022/11/05 11:38:28;;;;;;;54.65;26.50;;;;;;;21.38;56.20;100356.78;5009768;28;20049;-74
2022/11/05 11:41:19;;;;;;;132.85;31.80;;;;;;;21.49;55.13;100354.34;5026435;28;20040;-74
2022/11/05 11:43:45;;;;;;;89.82;29.15;;;;;;;21.60;54.04;100353.75;5026714;28;20033;-75
2022/11/05 11:46:18;;;;;;;56.22;25.90;;;;;;;21.64;53.65;100357.78;5026412;28;20459;-75
2022/11/05 11:48:46;;;;;;;57.70;25.77;;;;;;;21.57;53.83;100356.91;5026318;28;20502;-75
2022/11/05 11:51:28;;;;;;;76.70;28.40;;;;;;;21.76;53.56;100354.44;5048070;28;20131;-74
2022/11/05 11:53:59;;;;;;;46.40;26.33;;;;;;;21.71;53.75;100358.63;5109218;28;20028;-74
2022/11/05 11:56:24;;;;;;;42.10;23.77;;;;;;;21.62;54.31;100346.16;5109082;28;20069;-74